createdAt,value
2023-08-17T00:02:25.763Z,24.87
2023-08-17T00:04:53.378Z,28.07
2023-08-17T00:07:20.916Z,33.17
2023-08-17T00:09:48.604Z,22.50
2023-08-17T00:12:16.151Z,20.33
2023-08-17T00:14:43.756Z,24.20
2023-08-17T00:17:11.290Z,21.00
2023-08-17T00:19:38.869Z,16.27
2023-08-17T00:22:06.503Z,18.33
2023-08-17T00:24:34.066Z,17.63
2023-08-17T00:27:01.614Z,11.73
2023-08-17T00:29:29.265Z,16.00
2023-08-17T00:31:56.809Z,15.57
2023-08-17T00:34:24.426Z,18.37
2023-08-17T00:36:51.998Z,19.40
2023-08-17T00:39:19.662Z,19.13
2023-08-17T00:41:47.409Z,22.50
2023-08-17T00:44:15.096Z,15.47
2023-08-17T00:46:42.738Z,16.07
2023-08-17T00:49:11.741Z,12.37
2023-08-17T00:51:39.459Z,8.77
2023-08-17T00:54:07.210Z,22.00
2023-08-17T00:56:34.818Z,23.07
2023-08-17T00:59:02.503Z,25.87
2023-08-17T01:01:30.090Z,28.00
2023-08-17T01:03:57.735Z,31.30
2023-08-17T01:06:25.287Z,21.97
2023-08-17T01:08:52.910Z,9.33
2023-08-17T01:11:26.493Z,17.40
2023-08-17T01:14:03.337Z,22.97
2023-08-17T01:16:41.708Z,27.07
2023-08-17T01:19:09.906Z,26.77
2023-08-17T01:21:42.692Z,29.73
2023-08-17T01:24:10.509Z,26.83
2023-08-17T01:26:38.064Z,22.87
2023-08-17T01:29:05.696Z,22.00
2023-08-17T01:31:42.276Z,26.30
2023-08-17T01:34:12.082Z,27.30
2023-08-17T01:36:43.070Z,17.53
2023-08-17T01:39:11.892Z,26.90
2023-08-17T01:41:40.318Z,21.63
2023-08-17T01:44:07.908Z,20.23
2023-08-17T01:46:35.520Z,24.37
2023-08-17T01:49:03.209Z,25.33
2023-08-17T01:51:30.768Z,18.83
2023-08-17T01:53:58.327Z,16.83
2023-08-17T01:56:25.870Z,22.27
2023-08-17T01:58:53.526Z,22.23
2023-08-17T02:01:21.170Z,26.17
2023-08-17T02:03:48.891Z,28.20
2023-08-17T02:06:16.474Z,13.57
2023-08-17T02:08:44.073Z,23.67
2023-08-17T02:11:11.607Z,22.80
2023-08-17T02:13:39.205Z,18.80
2023-08-17T02:16:06.794Z,21.27
2023-08-17T02:18:34.404Z,25.77
2023-08-17T02:21:02.034Z,21.27
2023-08-17T02:23:29.642Z,13.87
2023-08-17T02:25:57.282Z,15.10
2023-08-17T02:28:24.821Z,23.60
2023-08-17T02:30:56.693Z,16.53
2023-08-17T02:33:24.489Z,21.20
2023-08-17T02:35:52.624Z,17.40
2023-08-17T02:38:20.302Z,15.27
2023-08-17T02:40:47.905Z,17.33
2023-08-17T02:43:15.487Z,25.77
2023-08-17T02:45:43.035Z,22.63
2023-08-17T02:48:10.746Z,20.10
2023-08-17T02:50:38.384Z,23.10
2023-08-17T02:53:06.119Z,25.37
2023-08-17T02:55:33.672Z,26.13
2023-08-17T02:58:01.295Z,25.83
2023-08-17T03:00:28.837Z,23.13
2023-08-17T03:02:56.509Z,30.47
2023-08-17T03:05:24.090Z,27.80
2023-08-17T03:07:51.676Z,25.37
2023-08-17T03:10:19.293Z,26.90
2023-08-17T03:12:47.210Z,31.07
2023-08-17T03:15:14.800Z,25.93
2023-08-17T03:17:42.456Z,31.50
2023-08-17T03:20:10.170Z,29.73
2023-08-17T03:22:37.731Z,28.00
2023-08-17T03:25:05.609Z,29.17
2023-08-17T03:27:33.274Z,30.70
2023-08-17T03:30:00.820Z,26.47
2023-08-17T03:32:28.434Z,24.63
2023-08-17T03:34:55.980Z,26.63
2023-08-17T03:37:23.782Z,22.33
2023-08-17T03:39:51.574Z,20.57
2023-08-17T03:42:19.141Z,19.43
2023-08-17T03:44:46.690Z,14.60
2023-08-17T03:47:14.317Z,21.73
2023-08-17T03:49:44.056Z,22.33
2023-08-17T03:52:11.621Z,22.40
2023-08-17T03:54:39.200Z,21.20
2023-08-17T03:57:06.803Z,23.13
2023-08-17T03:59:34.342Z,24.73
2023-08-17T04:02:02.102Z,23.33
2023-08-17T04:04:29.763Z,21.60
2023-08-17T04:06:57.318Z,25.60
2023-08-17T04:09:24.939Z,20.10
2023-08-17T04:11:52.538Z,19.67
2023-08-17T04:14:20.385Z,18.77
2023-08-17T04:16:48.067Z,17.23
2023-08-17T04:19:15.728Z,17.27
2023-08-17T04:21:43.314Z,16.97
2023-08-17T04:24:10.940Z,14.50
2023-08-17T04:26:38.465Z,19.30
2023-08-17T04:29:06.064Z,23.57
2023-08-17T04:31:33.693Z,18.73
2023-08-17T04:34:01.468Z,24.67
2023-08-17T04:36:29.045Z,17.97
2023-08-17T04:38:56.671Z,20.90
2023-08-17T04:41:24.229Z,22.13
2023-08-17T04:43:51.806Z,22.10
2023-08-17T04:46:19.426Z,20.73
2023-08-17T04:48:47.124Z,18.93
2023-08-17T04:51:16.816Z,16.93
2023-08-17T04:53:44.640Z,19.57
2023-08-17T04:56:12.267Z,24.70
2023-08-17T04:58:39.894Z,18.20
2023-08-17T05:01:07.523Z,21.03
2023-08-17T05:03:35.273Z,20.33
2023-08-17T05:06:03.142Z,18.47
2023-08-17T05:08:30.783Z,18.67
2023-08-17T05:10:58.482Z,21.23
2023-08-17T05:13:26.127Z,21.07
2023-08-17T05:15:53.791Z,21.23
2023-08-17T05:18:21.502Z,21.10
2023-08-17T05:20:49.132Z,21.93
2023-08-17T05:23:16.701Z,22.27
2023-08-17T05:25:47.508Z,19.03
2023-08-17T05:28:15.402Z,15.17
2023-08-17T05:30:43.009Z,21.07
2023-08-17T05:33:10.612Z,17.90
2023-08-17T05:35:38.141Z,19.97
2023-08-17T05:38:05.760Z,17.50
2023-08-17T05:40:34.160Z,20.03
2023-08-17T05:43:01.864Z,16.23
2023-08-17T05:45:29.416Z,19.47
2023-08-17T05:47:57.109Z,15.70
2023-08-17T05:50:24.717Z,21.00
2023-08-17T05:52:52.255Z,17.37
2023-08-17T05:55:19.890Z,14.03
2023-08-17T05:57:47.541Z,19.73
2023-08-17T06:00:18.110Z,17.50
2023-08-17T06:02:45.697Z,18.63
2023-08-17T06:05:13.270Z,17.17
2023-08-17T06:07:40.862Z,24.47
2023-08-17T06:10:08.721Z,27.37
2023-08-17T06:12:36.335Z,20.63
2023-08-17T06:15:04.120Z,20.03
2023-08-17T06:17:31.870Z,25.33
2023-08-17T06:19:59.544Z,23.00
2023-08-17T06:22:27.160Z,20.87
2023-08-17T06:24:54.747Z,25.50
2023-08-17T06:27:22.397Z,28.00
2023-08-17T06:29:49.977Z,22.20
2023-08-17T06:32:17.595Z,26.00
2023-08-17T06:34:45.168Z,25.03
2023-08-17T06:37:12.787Z,24.07
2023-08-17T06:39:40.311Z,26.10
2023-08-17T06:42:08.010Z,27.97
2023-08-17T06:44:35.590Z,31.67
2023-08-17T06:47:03.224Z,25.73
2023-08-17T06:49:30.752Z,28.40
2023-08-17T06:51:58.511Z,23.80
2023-08-17T06:54:26.118Z,25.90
2023-08-17T06:56:53.708Z,24.90
2023-08-17T06:59:21.248Z,26.17
2023-08-17T07:01:48.927Z,21.37
2023-08-17T07:04:16.609Z,24.63
2023-08-17T07:06:44.218Z,22.93
2023-08-17T07:09:11.886Z,26.77
2023-08-17T07:11:39.713Z,31.17
2023-08-17T07:14:07.285Z,23.53
2023-08-17T07:16:34.944Z,31.23
2023-08-17T07:19:02.596Z,31.13
2023-08-17T07:21:30.189Z,30.67
2023-08-17T07:23:57.756Z,27.87
2023-08-17T07:26:25.388Z,32.70
2023-08-17T07:28:53.362Z,32.50
2023-08-17T07:31:21.008Z,30.43
2023-08-17T07:33:48.568Z,28.60
2023-08-17T07:36:16.218Z,24.13
2023-08-17T07:38:43.850Z,28.97
2023-08-17T07:41:11.475Z,28.23
2023-08-17T07:43:39.004Z,28.10
2023-08-17T07:46:06.713Z,34.27
2023-08-17T07:48:34.385Z,32.33
2023-08-17T07:51:02.082Z,28.87
2023-08-17T07:53:29.662Z,30.13
2023-08-17T07:55:58.450Z,31.27
2023-08-17T07:58:26.274Z,31.23
2023-08-17T08:00:53.898Z,37.83
2023-08-17T08:03:21.552Z,33.13
2023-08-17T08:05:49.185Z,38.40
2023-08-17T08:08:16.778Z,37.20
2023-08-17T08:10:44.625Z,36.97
2023-08-17T08:13:12.261Z,33.27
2023-08-17T08:15:39.927Z,37.50
2023-08-17T08:18:07.571Z,44.83
2023-08-17T08:20:35.193Z,35.90
2023-08-17T08:23:02.905Z,35.37
2023-08-17T08:25:31.167Z,41.67
2023-08-17T08:27:59.878Z,34.87
2023-08-17T08:30:27.542Z,39.57
2023-08-17T08:32:55.118Z,34.70
2023-08-17T08:35:23.137Z,32.67
2023-08-17T08:37:50.739Z,32.33
2023-08-17T08:40:18.843Z,37.53
2023-08-17T08:42:46.464Z,30.47
2023-08-17T08:45:14.186Z,33.70
2023-08-17T08:47:43.529Z,38.30
2023-08-17T08:50:14.038Z,32.83
2023-08-17T08:52:46.451Z,36.63
2023-08-17T08:55:17.469Z,34.63
2023-08-17T09:00:18.930Z,34.80
2023-08-17T09:02:46.940Z,28.60
2023-08-17T09:05:15.404Z,33.70
2023-08-17T09:07:44.175Z,28.17
2023-08-17T09:10:12.340Z,29.93
2023-08-17T09:12:41.876Z,31.13
2023-08-17T09:15:09.978Z,31.27
2023-08-17T09:17:37.543Z,27.63
2023-08-17T09:20:05.416Z,27.83
2023-08-17T09:22:42.573Z,28.77
2023-08-17T09:25:11.083Z,27.97
2023-08-17T09:27:39.424Z,25.90
2023-08-17T09:30:07.901Z,25.30
2023-08-17T09:32:35.849Z,29.23
2023-08-17T09:35:07.197Z,25.47
2023-08-17T09:37:35.498Z,27.40
2023-08-17T09:40:03.187Z,27.63
2023-08-17T09:42:30.799Z,27.20
2023-08-17T09:44:59.720Z,28.20
2023-08-17T09:47:27.736Z,26.13
2023-08-17T09:49:56.548Z,24.80
2023-08-17T09:52:24.544Z,22.10
2023-08-17T09:54:53.529Z,25.60
2023-08-17T09:57:23.067Z,25.83
2023-08-17T09:59:51.835Z,21.33
2023-08-17T10:02:23.835Z,23.07
2023-08-17T10:04:53.759Z,25.07
2023-08-17T10:07:22.741Z,28.67
2023-08-17T10:10:04.527Z,25.17
2023-08-17T10:12:34.718Z,22.60
2023-08-17T10:15:05.144Z,25.30
2023-08-17T10:17:36.718Z,26.00
2023-08-17T10:20:04.878Z,20.07
2023-08-17T10:22:35.308Z,23.73
2023-08-17T10:25:03.603Z,31.17
2023-08-17T10:27:32.116Z,39.20
2023-08-17T10:29:59.734Z,38.97
2023-08-17T10:32:27.982Z,42.50
2023-08-17T10:34:55.900Z,41.87
2023-08-17T10:37:23.752Z,41.27
2023-08-17T10:39:51.428Z,40.13
2023-08-17T10:42:31.636Z,40.60
2023-08-17T10:44:59.274Z,35.03
2023-08-17T10:47:27.779Z,36.97
2023-08-17T10:50:04.957Z,32.47
2023-08-17T10:52:32.560Z,33.57
2023-08-17T10:55:06.792Z,39.47
2023-08-17T10:57:35.777Z,36.47
2023-08-17T11:00:09.735Z,32.50
2023-08-17T11:02:38.884Z,36.33
2023-08-17T11:05:06.955Z,38.93
2023-08-17T11:07:41.814Z,36.93
2023-08-17T11:10:13.084Z,37.20
2023-08-17T11:12:42.862Z,38.63
2023-08-17T11:15:10.556Z,33.43
2023-08-17T11:17:38.354Z,31.43
2023-08-17T11:20:06.333Z,29.87
2023-08-17T11:22:34.685Z,27.90
2023-08-17T11:25:02.361Z,26.07
2023-08-17T11:27:32.002Z,25.90
2023-08-17T11:30:01.007Z,24.77
2023-08-17T11:32:29.815Z,24.80
2023-08-17T11:34:59.450Z,29.87
2023-08-17T11:37:29.673Z,26.70
2023-08-17T11:39:57.418Z,25.33
2023-08-17T11:42:25.231Z,28.90
2023-08-17T11:44:53.364Z,26.07
2023-08-17T11:47:20.984Z,28.00
2023-08-17T11:49:51.686Z,25.20
2023-08-17T11:52:19.278Z,24.50
2023-08-17T11:57:19.538Z,24.03
2023-08-17T11:59:47.168Z,25.57
2023-08-17T12:02:14.888Z,26.17
2023-08-17T12:04:42.482Z,24.30
2023-08-17T12:07:10.141Z,23.23
2023-08-17T12:09:37.786Z,24.40
2023-08-17T12:12:05.607Z,22.80
2023-08-17T12:14:33.286Z,24.57
2023-08-17T12:17:00.878Z,25.33
2023-08-17T12:19:28.450Z,24.77
2023-08-17T12:21:56.124Z,28.00
2023-08-17T12:24:25.604Z,25.30
2023-08-17T12:26:54.822Z,21.20
2023-08-17T12:29:22.530Z,19.07
2023-08-17T12:31:50.107Z,19.93
2023-08-17T12:34:17.693Z,16.93
2023-08-17T12:36:47.647Z,17.37
2023-08-17T12:39:15.373Z,19.47
2023-08-17T12:41:42.982Z,18.90
2023-08-17T12:44:17.280Z,20.90
2023-08-17T12:46:45.510Z,19.97
2023-08-17T12:49:13.158Z,20.07
2023-08-17T12:51:46.055Z,21.00
2023-08-17T12:54:14.129Z,19.53
2023-08-17T12:56:41.718Z,17.87
2023-08-17T12:59:09.399Z,18.60
2023-08-17T13:01:36.994Z,21.07
2023-08-17T13:04:04.738Z,22.80
2023-08-17T13:06:43.759Z,23.27
2023-08-17T13:09:15.612Z,23.90
2023-08-17T13:11:43.205Z,23.13
2023-08-17T13:14:10.829Z,23.73
2023-08-17T13:16:38.570Z,24.80
2023-08-17T13:19:06.202Z,23.23
2023-08-17T13:21:33.801Z,24.87
2023-08-17T13:24:01.454Z,26.00
2023-08-17T13:26:29.012Z,26.70
2023-08-17T13:28:56.649Z,25.17
2023-08-17T13:31:25.200Z,27.13
2023-08-17T13:33:53.128Z,29.47
2023-08-17T13:36:20.798Z,26.10
2023-08-17T13:38:48.416Z,28.47
2023-08-17T13:41:16.103Z,25.40
2023-08-17T13:43:43.815Z,25.13
2023-08-17T13:46:11.448Z,23.87
2023-08-17T13:48:41.269Z,23.80
2023-08-17T13:51:08.944Z,22.47
2023-08-17T13:53:36.546Z,25.17
2023-08-17T13:56:04.546Z,29.53
2023-08-17T13:58:32.129Z,31.70
2023-08-17T14:00:59.733Z,30.07
2023-08-17T14:03:27.414Z,30.60
2023-08-17T14:05:55.172Z,31.67
2023-08-17T14:08:22.729Z,32.20
2023-08-17T14:10:50.406Z,33.87
2023-08-17T14:13:17.958Z,32.53
2023-08-17T14:15:45.786Z,36.00
2023-08-17T14:18:13.441Z,34.20
2023-08-17T14:20:41.130Z,36.03
2023-08-17T14:23:09.039Z,36.70
2023-08-17T14:25:36.639Z,33.97
2023-08-17T14:28:05.915Z,35.73
2023-08-17T14:30:33.564Z,38.43
2023-08-17T14:33:01.772Z,36.37
2023-08-17T14:35:29.855Z,42.03
2023-08-17T14:37:57.464Z,36.00
2023-08-17T14:40:25.395Z,39.83
2023-08-17T14:42:54.733Z,33.67
2023-08-17T14:45:22.959Z,33.23
2023-08-17T14:47:50.565Z,36.13
2023-08-17T14:50:18.187Z,28.43
2023-08-17T14:52:45.745Z,38.37
2023-08-17T14:55:14.059Z,38.93
2023-08-17T14:57:41.648Z,36.97
2023-08-17T15:02:43.787Z,37.50
2023-08-17T15:05:11.411Z,36.03
2023-08-17T15:07:39.224Z,40.67
2023-08-17T15:10:07.151Z,38.87
2023-08-17T15:12:34.940Z,39.00
2023-08-17T15:15:03.044Z,39.23
2023-08-17T15:17:30.790Z,38.07
2023-08-17T15:19:59.539Z,34.03
2023-08-17T15:22:27.403Z,32.50
2023-08-17T15:24:55.073Z,33.33
2023-08-17T15:27:22.753Z,31.83
2023-08-17T15:29:50.331Z,29.30
2023-08-17T15:32:17.952Z,34.77
2023-08-17T15:34:45.523Z,30.63
2023-08-17T15:37:13.183Z,32.13
2023-08-17T15:39:40.787Z,31.97
2023-08-17T15:42:08.446Z,31.43
2023-08-17T15:44:36.037Z,26.93
2023-08-17T15:47:03.769Z,24.93
2023-08-17T15:49:31.487Z,23.40
2023-08-17T15:51:59.106Z,28.27
2023-08-17T15:54:35.759Z,25.30
2023-08-17T15:57:05.229Z,23.47
2023-08-17T15:59:32.906Z,20.97
2023-08-17T16:02:00.647Z,19.90
2023-08-17T16:04:28.235Z,19.13
2023-08-17T16:06:55.875Z,20.57
2023-08-17T16:09:23.476Z,20.63
2023-08-17T16:11:51.097Z,17.50
2023-08-17T16:14:18.771Z,19.23
2023-08-17T16:16:46.368Z,18.47
2023-08-17T16:19:13.938Z,18.27
2023-08-17T16:21:41.589Z,15.17
2023-08-17T16:24:09.265Z,16.97
2023-08-17T16:26:39.930Z,18.13
2023-08-17T16:29:07.489Z,20.70
2023-08-17T16:31:35.860Z,18.37
2023-08-17T16:34:03.767Z,22.77
2023-08-17T16:36:36.375Z,22.77
2023-08-17T16:39:04.634Z,22.37
2023-08-17T16:41:32.256Z,21.23
2023-08-17T16:44:05.539Z,25.23
2023-08-17T16:46:33.660Z,23.53
2023-08-17T16:49:01.208Z,22.23
2023-08-17T16:51:28.834Z,22.93
2023-08-17T16:53:56.381Z,27.47
2023-08-17T16:56:24.405Z,25.23
2023-08-17T16:58:51.919Z,24.53
2023-08-17T17:01:19.733Z,23.57
2023-08-17T17:03:47.284Z,22.03
2023-08-17T17:06:14.931Z,26.60
2023-08-17T17:08:42.488Z,21.13
2023-08-17T17:11:10.125Z,22.17
2023-08-17T17:13:37.771Z,20.23
2023-08-17T17:16:05.462Z,22.40
2023-08-17T17:18:33.042Z,23.20
2023-08-17T17:21:00.654Z,22.20
2023-08-17T17:23:28.196Z,19.27
2023-08-17T17:25:55.979Z,23.83
2023-08-17T17:28:23.569Z,19.40
2023-08-17T17:30:51.201Z,24.00
2023-08-17T17:33:18.769Z,24.97
2023-08-17T17:35:46.342Z,27.07
2023-08-17T17:38:13.878Z,23.93
2023-08-17T17:40:41.464Z,24.40
2023-08-17T17:43:09.070Z,17.97
2023-08-17T17:45:36.645Z,23.60
2023-08-17T17:48:04.432Z,22.13
2023-08-17T17:50:32.265Z,24.47
2023-08-17T17:53:00.009Z,23.33
2023-08-17T17:55:27.681Z,23.00
2023-08-17T17:57:55.219Z,23.77
2023-08-17T18:00:22.816Z,26.53
2023-08-17T18:02:50.425Z,24.60
2023-08-17T18:05:18.085Z,24.37
2023-08-17T18:07:45.656Z,22.80
2023-08-17T18:10:13.245Z,23.60
2023-08-17T18:12:40.797Z,21.67
2023-08-17T18:15:08.503Z,21.50
2023-08-17T18:17:36.088Z,20.27
2023-08-17T18:20:03.738Z,18.70
2023-08-17T18:22:31.320Z,21.10
2023-08-17T18:24:58.930Z,19.20
2023-08-17T18:27:26.748Z,19.73
2023-08-17T18:29:54.555Z,23.03
2023-08-17T18:32:22.137Z,20.67
2023-08-17T18:34:49.712Z,18.53
2023-08-17T18:37:17.260Z,16.27
2023-08-17T18:39:44.887Z,17.33
2023-08-17T18:42:12.451Z,18.03
2023-08-17T18:44:40.086Z,18.23
2023-08-17T18:47:07.939Z,16.93
2023-08-17T18:49:35.566Z,16.03
2023-08-17T18:52:03.138Z,24.57
2023-08-17T18:54:30.763Z,13.90
2023-08-17T18:56:58.309Z,16.10
2023-08-17T18:59:25.852Z,18.00
2023-08-17T19:01:53.402Z,17.80
2023-08-17T19:04:21.149Z,17.20
2023-08-17T19:06:48.725Z,17.87
2023-08-17T19:09:16.382Z,17.53
2023-08-17T19:11:43.969Z,16.43
2023-08-17T19:14:11.536Z,17.33
2023-08-17T19:16:39.255Z,16.80
2023-08-17T19:19:06.894Z,19.20
2023-08-17T19:21:34.552Z,17.50
2023-08-17T19:24:02.103Z,20.27
2023-08-17T19:26:29.701Z,19.43
2023-08-17T19:28:57.271Z,16.60
2023-08-17T19:31:24.891Z,17.53
2023-08-17T19:33:52.498Z,17.97
2023-08-17T19:36:20.086Z,17.60
2023-08-17T19:38:47.760Z,17.00
2023-08-17T19:41:15.387Z,20.10
2023-08-17T19:43:42.982Z,17.80
2023-08-17T19:46:10.739Z,19.23
2023-08-17T19:48:38.421Z,21.07
2023-08-17T19:51:06.054Z,22.40
2023-08-17T19:53:35.812Z,17.90
2023-08-17T19:56:03.573Z,17.40
2023-08-17T19:58:31.204Z,17.17
2023-08-17T20:01:05.067Z,16.97
2023-08-17T20:03:36.298Z,17.50
2023-08-17T20:06:04.075Z,19.07
2023-08-17T20:08:31.896Z,18.40
2023-08-17T20:10:59.569Z,18.80
2023-08-17T20:13:27.163Z,20.87
2023-08-17T20:15:55.612Z,20.90
2023-08-17T20:18:23.500Z,21.13
2023-08-17T20:20:54.644Z,21.47
2023-08-17T20:23:22.430Z,22.27
2023-08-17T20:25:52.974Z,24.53
2023-08-17T20:28:23.580Z,22.17
2023-08-17T20:30:56.346Z,22.93
2023-08-17T20:33:23.937Z,25.23
2023-08-17T20:35:52.460Z,22.80
2023-08-17T20:38:20.255Z,24.57
2023-08-17T20:40:47.832Z,24.10
2023-08-17T20:43:15.445Z,24.20
2023-08-17T20:45:43.423Z,23.30
2023-08-17T20:48:11.472Z,25.50
2023-08-17T20:50:43.717Z,25.83
2023-08-17T20:53:11.688Z,26.40
2023-08-17T20:55:39.982Z,27.63
2023-08-17T20:58:07.874Z,26.27
2023-08-17T21:00:35.523Z,28.77
2023-08-17T21:03:05.099Z,29.27
2023-08-17T21:05:33.044Z,28.23
2023-08-17T21:08:00.848Z,31.50
2023-08-17T21:10:28.981Z,32.80
2023-08-17T21:12:56.508Z,31.87
2023-08-17T21:15:24.245Z,30.93
2023-08-17T21:17:51.875Z,29.60
2023-08-17T21:20:19.592Z,30.50
2023-08-17T21:22:49.263Z,30.23
2023-08-17T21:25:17.421Z,29.77
2023-08-17T21:27:44.969Z,32.77
2023-08-17T21:30:12.665Z,31.17
2023-08-17T21:32:42.709Z,31.53
2023-08-17T21:35:10.508Z,33.00
2023-08-17T21:37:38.038Z,34.13
2023-08-17T21:40:05.912Z,32.80
2023-08-17T21:42:33.446Z,32.30
2023-08-17T21:45:01.106Z,34.83
2023-08-17T21:47:28.851Z,36.73
2023-08-17T21:49:56.602Z,34.00
2023-08-17T21:52:24.197Z,36.07
2023-08-17T21:54:51.838Z,39.33
2023-08-17T21:57:19.423Z,39.83
2023-08-17T21:59:47.109Z,39.37
2023-08-17T22:02:14.675Z,36.13
2023-08-17T22:04:42.321Z,39.33
2023-08-17T22:07:09.885Z,40.17
2023-08-17T22:09:37.495Z,41.73
2023-08-17T22:12:05.307Z,44.73
2023-08-17T22:14:32.942Z,45.00
2023-08-17T22:17:00.541Z,41.40
2023-08-17T22:19:28.108Z,43.57
2023-08-17T22:21:55.833Z,47.27
2023-08-17T22:24:23.470Z,44.63
2023-08-17T22:26:51.704Z,44.60
2023-08-17T22:29:19.283Z,49.20
2023-08-17T22:31:46.817Z,46.47
2023-08-17T22:34:14.467Z,47.43
2023-08-17T22:36:42.030Z,39.07
2023-08-17T22:39:09.643Z,50.20
2023-08-17T22:41:37.718Z,53.13
2023-08-17T22:44:05.483Z,48.93
2023-08-17T22:46:33.085Z,53.57
2023-08-17T22:49:00.772Z,45.67
2023-08-17T22:51:28.347Z,48.67
2023-08-17T22:53:55.920Z,51.00
2023-08-17T22:56:23.478Z,42.70
2023-08-17T22:58:51.134Z,45.57
2023-08-17T23:01:18.739Z,48.27
2023-08-17T23:03:46.328Z,47.30
2023-08-17T23:06:13.938Z,49.93
2023-08-17T23:08:41.525Z,50.27
2023-08-17T23:11:09.061Z,48.43
2023-08-17T23:13:36.636Z,46.93
2023-08-17T23:16:04.255Z,46.67
2023-08-17T23:18:31.898Z,47.93
2023-08-17T23:20:59.474Z,45.67
2023-08-17T23:23:27.115Z,45.47
2023-08-17T23:25:55.028Z,43.17
2023-08-17T23:28:22.662Z,48.60
2023-08-17T23:30:50.270Z,50.93
2023-08-17T23:33:17.963Z,45.77
2023-08-17T23:35:45.555Z,50.30
2023-08-17T23:38:13.209Z,38.87
2023-08-17T23:40:40.816Z,41.23
2023-08-17T23:43:08.424Z,40.67
2023-08-17T23:45:36.081Z,42.03
2023-08-17T23:48:03.800Z,43.10
2023-08-17T23:50:31.382Z,33.90
2023-08-17T23:52:59.033Z,42.07
2023-08-17T23:55:26.597Z,49.60
2023-08-17T23:57:54.153Z,44.80
